sensor_id;sensor_type;location;lat;lon;timestamp;temperature;humidity
5578;DHT22;2811;51.900;10.734;2023-04-24T00:02:20;13.50;99.90
5578;DHT22;2811;51.900;10.734;2023-04-24T00:04:47;13.50;99.90
5578;DHT22;2811;51.900;10.734;2023-04-24T00:07:14;13.50;99.90
5578;DHT22;2811;51.900;10.734;2023-04-24T00:09:42;13.20;99.90
5578;DHT22;2811;51.900;10.734;2023-04-24T00:12:10;13.00;99.90
5578;DHT22;2811;51.900;10.734;2023-04-24T00:14:36;13.00;99.90
5578;DHT22;2811;51.900;10.734;2023-04-24T00:17:03;12.80;99.90
5578;DHT22;2811;51.900;10.734;2023-04-24T00:19:30;12.80;99.90
5578;DHT22;2811;51.900;10.734;2023-04-24T00:21:56;12.60;99.90
5578;DHT22;2811;51.900;10.734;2023-04-24T00:24:23;12.70;99.90
5578;DHT22;2811;51.900;10.734;2023-04-24T00:26:49;12.80;99.90
5578;DHT22;2811;51.900;10.734;2023-04-24T00:29:17;12.80;99.90
5578;DHT22;2811;51.900;10.734;2023-04-24T00:31:44;12.90;99.90
5578;DHT22;2811;51.900;10.734;2023-04-24T00:34:11;12.90;99.90
5578;DHT22;2811;51.900;10.734;2023-04-24T00:36:38;12.80;99.90
5578;DHT22;2811;51.900;10.734;2023-04-24T00:39:04;12.80;99.90
5578;DHT22;2811;51.900;10.734;2023-04-24T00:41:34;12.80;99.90
5578;DHT22;2811;51.900;10.734;2023-04-24T00:44:01;12.90;99.90
5578;DHT22;2811;51.900;10.734;2023-04-24T00:46:30;13.00;99.90
5578;DHT22;2811;51.900;10.734;2023-04-24T00:48:59;13.00;99.90
5578;DHT22;2811;51.900;10.734;2023-04-24T00:51:25;13.10;99.90
5578;DHT22;2811;51.900;10.734;2023-04-24T00:53:52;13.10;99.90
5578;DHT22;2811;51.900;10.734;2023-04-24T00:56:19;13.20;99.90
5578;DHT22;2811;51.900;10.734;2023-04-24T00:58:47;13.10;99.90
5578;DHT22;2811;51.900;10.734;2023-04-24T01:01:13;13.10;99.90
5578;DHT22;2811;51.900;10.734;2023-04-24T01:03:42;12.90;99.90
5578;DHT22;2811;51.900;10.734;2023-04-24T01:06:09;12.80;99.90
5578;DHT22;2811;51.900;10.734;2023-04-24T01:08:37;12.90;99.90
5578;DHT22;2811;51.900;10.734;2023-04-24T01:11:05;12.90;99.90
5578;DHT22;2811;51.900;10.734;2023-04-24T01:13:32;13.00;99.90
5578;DHT22;2811;51.900;10.734;2023-04-24T01:15:59;13.10;99.90
5578;DHT22;2811;51.900;10.734;2023-04-24T01:18:27;13.00;99.90
5578;DHT22;2811;51.900;10.734;2023-04-24T01:20:58;13.00;99.90
5578;DHT22;2811;51.900;10.734;2023-04-24T01:23:26;13.00;99.90
5578;DHT22;2811;51.900;10.734;2023-04-24T01:25:53;13.00;99.90
5578;DHT22;2811;51.900;10.734;2023-04-24T01:28:20;12.90;99.90
5578;DHT22;2811;51.900;10.734;2023-04-24T01:30:47;12.90;99.90
5578;DHT22;2811;51.900;10.734;2023-04-24T01:33:13;12.80;99.90
5578;DHT22;2811;51.900;10.734;2023-04-24T01:35:40;12.70;99.90
5578;DHT22;2811;51.900;10.734;2023-04-24T01:38:07;12.70;99.90
5578;DHT22;2811;51.900;10.734;2023-04-24T01:40:35;12.70;99.90
5578;DHT22;2811;51.900;10.734;2023-04-24T01:43:02;12.70;99.90
5578;DHT22;2811;51.900;10.734;2023-04-24T01:45:28;12.70;99.90
5578;DHT22;2811;51.900;10.734;2023-04-24T01:47:55;12.70;99.90
5578;DHT22;2811;51.900;10.734;2023-04-24T01:50:22;12.80;99.90
5578;DHT22;2811;51.900;10.734;2023-04-24T01:52:49;12.90;99.90
5578;DHT22;2811;51.900;10.734;2023-04-24T01:55:15;12.90;99.90
5578;DHT22;2811;51.900;10.734;2023-04-24T01:57:43;12.80;99.90
5578;DHT22;2811;51.900;10.734;2023-04-24T02:00:11;12.70;99.90
5578;DHT22;2811;51.900;10.734;2023-04-24T02:02:39;12.70;99.90
5578;DHT22;2811;51.900;10.734;2023-04-24T02:05:07;12.70;99.90
5578;DHT22;2811;51.900;10.734;2023-04-24T02:07:33;12.60;99.90
5578;DHT22;2811;51.900;10.734;2023-04-24T02:10:00;12.60;99.90
5578;DHT22;2811;51.900;10.734;2023-04-24T02:12:27;12.40;99.90
5578;DHT22;2811;51.900;10.734;2023-04-24T02:14:55;12.50;99.90
5578;DHT22;2811;51.900;10.734;2023-04-24T02:17:21;12.60;99.90
5578;DHT22;2811;51.900;10.734;2023-04-24T02:19:48;12.60;99.90
5578;DHT22;2811;51.900;10.734;2023-04-24T02:22:15;12.50;99.90
5578;DHT22;2811;51.900;10.734;2023-04-24T02:24:41;12.40;99.90
5578;DHT22;2811;51.900;10.734;2023-04-24T02:27:08;12.40;99.90
5578;DHT22;2811;51.900;10.734;2023-04-24T02:29:35;12.40;99.90
5578;DHT22;2811;51.900;10.734;2023-04-24T02:32:03;12.40;99.90
5578;DHT22;2811;51.900;10.734;2023-04-24T02:34:29;12.40;99.90
5578;DHT22;2811;51.900;10.734;2023-04-24T02:36:56;12.40;99.90
5578;DHT22;2811;51.900;10.734;2023-04-24T02:39:22;12.40;99.90
5578;DHT22;2811;51.900;10.734;2023-04-24T02:41:49;12.50;99.90
5578;DHT22;2811;51.900;10.734;2023-04-24T02:44:16;12.50;99.90
5578;DHT22;2811;51.900;10.734;2023-04-24T02:46:43;12.40;99.90
5578;DHT22;2811;51.900;10.734;2023-04-24T02:49:11;12.50;99.90
5578;DHT22;2811;51.900;10.734;2023-04-24T02:51:38;12.50;99.90
5578;DHT22;2811;51.900;10.734;2023-04-24T02:54:06;12.40;99.90
5578;DHT22;2811;51.900;10.734;2023-04-24T02:56:33;12.50;99.90
5578;DHT22;2811;51.900;10.734;2023-04-24T02:59:00;12.50;99.90
5578;DHT22;2811;51.900;10.734;2023-04-24T03:01:26;12.40;99.90
5578;DHT22;2811;51.900;10.734;2023-04-24T03:03:53;12.30;99.90
5578;DHT22;2811;51.900;10.734;2023-04-24T03:06:21;12.30;99.90
5578;DHT22;2811;51.900;10.734;2023-04-24T03:08:48;12.20;99.90
5578;DHT22;2811;51.900;10.734;2023-04-24T03:11:14;12.20;99.90
5578;DHT22;2811;51.900;10.734;2023-04-24T03:13:41;12.20;99.90
5578;DHT22;2811;51.900;10.734;2023-04-24T03:16:08;12.20;99.90
5578;DHT22;2811;51.900;10.734;2023-04-24T03:18:34;12.50;99.90
5578;DHT22;2811;51.900;10.734;2023-04-24T03:21:01;12.10;99.90
5578;DHT22;2811;51.900;10.734;2023-04-24T03:23:30;12.20;99.90
5578;DHT22;2811;51.900;10.734;2023-04-24T03:25:56;12.20;99.90
5578;DHT22;2811;51.900;10.734;2023-04-24T03:28:23;12.10;99.90
5578;DHT22;2811;51.900;10.734;2023-04-24T03:30:50;12.20;99.90
5578;DHT22;2811;51.900;10.734;2023-04-24T03:33:17;12.20;99.90
5578;DHT22;2811;51.900;10.734;2023-04-24T03:35:43;12.20;99.90
5578;DHT22;2811;51.900;10.734;2023-04-24T03:38:10;12.10;99.90
5578;DHT22;2811;51.900;10.734;2023-04-24T03:40:38;12.10;99.90
5578;DHT22;2811;51.900;10.734;2023-04-24T03:43:05;12.10;99.90
5578;DHT22;2811;51.900;10.734;2023-04-24T03:45:31;12.00;99.90
5578;DHT22;2811;51.900;10.734;2023-04-24T03:47:58;12.10;99.90
5578;DHT22;2811;51.900;10.734;2023-04-24T03:50:24;12.10;99.90
5578;DHT22;2811;51.900;10.734;2023-04-24T03:52:52;12.10;99.90
5578;DHT22;2811;51.900;10.734;2023-04-24T03:55:18;12.20;99.90
5578;DHT22;2811;51.900;10.734;2023-04-24T03:57:46;12.10;99.90
5578;DHT22;2811;51.900;10.734;2023-04-24T04:00:13;12.10;99.90
5578;DHT22;2811;51.900;10.734;2023-04-24T04:02:40;12.10;99.90
5578;DHT22;2811;51.900;10.734;2023-04-24T04:05:07;12.10;99.90
5578;DHT22;2811;51.900;10.734;2023-04-24T04:07:34;12.00;99.90
5578;DHT22;2811;51.900;10.734;2023-04-24T04:10:01;12.10;99.90
5578;DHT22;2811;51.900;10.734;2023-04-24T04:12:27;12.00;99.90
5578;DHT22;2811;51.900;10.734;2023-04-24T04:14:55;12.10;99.90
5578;DHT22;2811;51.900;10.734;2023-04-24T04:17:22;12.10;99.90
5578;DHT22;2811;51.900;10.734;2023-04-24T04:19:48;12.10;99.90
5578;DHT22;2811;51.900;10.734;2023-04-24T04:22:16;12.10;99.90
5578;DHT22;2811;51.900;10.734;2023-04-24T04:24:42;12.10;99.90
5578;DHT22;2811;51.900;10.734;2023-04-24T04:27:10;12.10;99.90
5578;DHT22;2811;51.900;10.734;2023-04-24T04:29:37;12.00;99.90
5578;DHT22;2811;51.900;10.734;2023-04-24T04:32:06;11.80;99.90
5578;DHT22;2811;51.900;10.734;2023-04-24T04:34:33;11.80;99.90
5578;DHT22;2811;51.900;10.734;2023-04-24T04:36:59;11.80;99.90
5578;DHT22;2811;51.900;10.734;2023-04-24T04:39:27;11.80;99.90
5578;DHT22;2811;51.900;10.734;2023-04-24T04:41:55;11.80;99.90
5578;DHT22;2811;51.900;10.734;2023-04-24T04:44:21;11.90;99.90
5578;DHT22;2811;51.900;10.734;2023-04-24T04:46:49;11.90;99.90
5578;DHT22;2811;51.900;10.734;2023-04-24T04:49:19;11.80;99.90
5578;DHT22;2811;51.900;10.734;2023-04-24T04:51:47;11.90;99.90
5578;DHT22;2811;51.900;10.734;2023-04-24T04:54:13;12.00;99.90
5578;DHT22;2811;51.900;10.734;2023-04-24T04:56:41;12.10;99.90
5578;DHT22;2811;51.900;10.734;2023-04-24T04:59:07;12.10;99.90
5578;DHT22;2811;51.900;10.734;2023-04-24T05:01:34;12.10;99.90
5578;DHT22;2811;51.900;10.734;2023-04-24T05:04:01;12.20;99.90
5578;DHT22;2811;51.900;10.734;2023-04-24T05:06:28;12.20;99.90
5578;DHT22;2811;51.900;10.734;2023-04-24T05:08:56;12.30;99.90
5578;DHT22;2811;51.900;10.734;2023-04-24T05:11:23;12.20;99.90
5578;DHT22;2811;51.900;10.734;2023-04-24T05:13:49;12.40;99.90
5578;DHT22;2811;51.900;10.734;2023-04-24T05:16:16;12.30;99.90
5578;DHT22;2811;51.900;10.734;2023-04-24T05:18:42;12.30;99.90
5578;DHT22;2811;51.900;10.734;2023-04-24T05:21:09;12.10;99.90
5578;DHT22;2811;51.900;10.734;2023-04-24T05:23:37;12.20;99.90
5578;DHT22;2811;51.900;10.734;2023-04-24T05:26:04;12.30;99.90
5578;DHT22;2811;51.900;10.734;2023-04-24T05:28:30;12.30;99.90
5578;DHT22;2811;51.900;10.734;2023-04-24T05:30:57;12.40;99.90
5578;DHT22;2811;51.900;10.734;2023-04-24T05:33:24;12.40;99.90
5578;DHT22;2811;51.900;10.734;2023-04-24T05:35:51;12.60;99.90
5578;DHT22;2811;51.900;10.734;2023-04-24T05:38:18;12.80;99.90
5578;DHT22;2811;51.900;10.734;2023-04-24T05:40:46;12.90;99.90
5578;DHT22;2811;51.900;10.734;2023-04-24T05:43:13;13.00;99.90
5578;DHT22;2811;51.900;10.734;2023-04-24T05:45:39;12.90;99.90
5578;DHT22;2811;51.900;10.734;2023-04-24T05:48:06;12.90;99.90
5578;DHT22;2811;51.900;10.734;2023-04-24T05:50:32;12.80;99.90
5578;DHT22;2811;51.900;10.734;2023-04-24T05:52:59;12.90;99.90
5578;DHT22;2811;51.900;10.734;2023-04-24T05:55:27;12.80;99.90
5578;DHT22;2811;51.900;10.734;2023-04-24T05:57:55;12.80;99.90
5578;DHT22;2811;51.900;10.734;2023-04-24T06:00:22;12.80;99.90
5578;DHT22;2811;51.900;10.734;2023-04-24T06:02:49;12.90;99.90
5578;DHT22;2811;51.900;10.734;2023-04-24T06:05:15;12.90;99.90
5578;DHT22;2811;51.900;10.734;2023-04-24T06:07:42;13.00;99.90
5578;DHT22;2811;51.900;10.734;2023-04-24T06:10:10;13.10;99.90
5578;DHT22;2811;51.900;10.734;2023-04-24T06:12:36;13.00;99.90
5578;DHT22;2811;51.900;10.734;2023-04-24T06:15:05;13.00;99.90
5578;DHT22;2811;51.900;10.734;2023-04-24T06:17:32;13.00;99.90
5578;DHT22;2811;51.900;10.734;2023-04-24T06:19:59;13.00;99.90
5578;DHT22;2811;51.900;10.734;2023-04-24T06:22:25;13.00;99.90
5578;DHT22;2811;51.900;10.734;2023-04-24T06:24:52;13.00;99.90
5578;DHT22;2811;51.900;10.734;2023-04-24T06:27:18;12.90;99.90
5578;DHT22;2811;51.900;10.734;2023-04-24T06:29:45;12.90;99.90
5578;DHT22;2811;51.900;10.734;2023-04-24T06:32:19;12.90;99.90
5578;DHT22;2811;51.900;10.734;2023-04-24T06:34:45;13.00;99.90
5578;DHT22;2811;51.900;10.734;2023-04-24T06:37:12;13.20;99.90
5578;DHT22;2811;51.900;10.734;2023-04-24T06:39:39;13.50;99.90
5578;DHT22;2811;51.900;10.734;2023-04-24T06:42:05;13.50;99.90
5578;DHT22;2811;51.900;10.734;2023-04-24T06:44:33;13.60;99.90
5578;DHT22;2811;51.900;10.734;2023-04-24T06:47:03;13.50;99.90
5578;DHT22;2811;51.900;10.734;2023-04-24T06:49:31;13.60;99.90
5578;DHT22;2811;51.900;10.734;2023-04-24T06:51:57;13.80;99.90
5578;DHT22;2811;51.900;10.734;2023-04-24T06:54:24;14.10;99.90
5578;DHT22;2811;51.900;10.734;2023-04-24T06:56:51;13.90;99.90
5578;DHT22;2811;51.900;10.734;2023-04-24T06:59:17;14.00;99.90
5578;DHT22;2811;51.900;10.734;2023-04-24T07:01:44;13.80;99.90
5578;DHT22;2811;51.900;10.734;2023-04-24T07:04:10;13.60;99.90
5578;DHT22;2811;51.900;10.734;2023-04-24T07:06:39;13.60;99.90
5578;DHT22;2811;51.900;10.734;2023-04-24T07:09:06;13.40;99.90
5578;DHT22;2811;51.900;10.734;2023-04-24T07:11:34;13.40;99.90
5578;DHT22;2811;51.900;10.734;2023-04-24T07:14:02;13.50;99.90
5578;DHT22;2811;51.900;10.734;2023-04-24T07:16:28;13.80;99.90
5578;DHT22;2811;51.900;10.734;2023-04-24T07:18:55;14.00;99.90
5578;DHT22;2811;51.900;10.734;2023-04-24T07:21:22;14.10;99.90
5578;DHT22;2811;51.900;10.734;2023-04-24T07:23:50;14.20;99.90
5578;DHT22;2811;51.900;10.734;2023-04-24T07:26:16;14.50;99.90
5578;DHT22;2811;51.900;10.734;2023-04-24T07:28:43;14.60;99.90
5578;DHT22;2811;51.900;10.734;2023-04-24T07:31:11;15.10;99.90
5578;DHT22;2811;51.900;10.734;2023-04-24T07:33:38;15.20;99.90
5578;DHT22;2811;51.900;10.734;2023-04-24T07:36:04;15.20;99.90
5578;DHT22;2811;51.900;10.734;2023-04-24T07:38:31;15.40;99.90
5578;DHT22;2811;51.900;10.734;2023-04-24T07:40:59;15.10;99.90
5578;DHT22;2811;51.900;10.734;2023-04-24T07:43:26;15.40;99.90
5578;DHT22;2811;51.900;10.734;2023-04-24T07:45:53;15.30;99.90
5578;DHT22;2811;51.900;10.734;2023-04-24T07:48:20;15.20;99.90
5578;DHT22;2811;51.900;10.734;2023-04-24T07:50:47;15.20;99.90
5578;DHT22;2811;51.900;10.734;2023-04-24T07:53:14;15.10;99.90
5578;DHT22;2811;51.900;10.734;2023-04-24T07:55:40;15.10;99.90
5578;DHT22;2811;51.900;10.734;2023-04-24T07:58:08;14.80;99.90
5578;DHT22;2811;51.900;10.734;2023-04-24T08:00:35;14.70;99.90
5578;DHT22;2811;51.900;10.734;2023-04-24T08:03:02;14.60;99.90
5578;DHT22;2811;51.900;10.734;2023-04-24T08:05:28;14.50;99.90
5578;DHT22;2811;51.900;10.734;2023-04-24T08:07:55;14.30;99.90
5578;DHT22;2811;51.900;10.734;2023-04-24T08:10:22;14.30;99.90
5578;DHT22;2811;51.900;10.734;2023-04-24T08:12:49;14.30;99.90
5578;DHT22;2811;51.900;10.734;2023-04-24T08:15:17;14.60;99.90
5578;DHT22;2811;51.900;10.734;2023-04-24T08:17:44;14.70;99.90
5578;DHT22;2811;51.900;10.734;2023-04-24T08:20:11;14.40;99.90
5578;DHT22;2811;51.900;10.734;2023-04-24T08:22:39;14.20;99.90
5578;DHT22;2811;51.900;10.734;2023-04-24T08:25:06;14.00;99.90
5578;DHT22;2811;51.900;10.734;2023-04-24T08:27:33;13.90;99.90
5578;DHT22;2811;51.900;10.734;2023-04-24T08:29:59;14.00;99.90
5578;DHT22;2811;51.900;10.734;2023-04-24T08:32:28;14.20;99.90
5578;DHT22;2811;51.900;10.734;2023-04-24T08:34:55;14.30;99.90
5578;DHT22;2811;51.900;10.734;2023-04-24T08:37:22;14.60;99.90
5578;DHT22;2811;51.900;10.734;2023-04-24T08:39:49;14.90;99.90
5578;DHT22;2811;51.900;10.734;2023-04-24T08:42:17;15.40;99.90
5578;DHT22;2811;51.900;10.734;2023-04-24T08:44:44;15.40;99.90
5578;DHT22;2811;51.900;10.734;2023-04-24T08:47:11;15.80;99.90
5578;DHT22;2811;51.900;10.734;2023-04-24T08:49:39;16.20;98.80
5578;DHT22;2811;51.900;10.734;2023-04-24T08:52:06;16.40;97.00
5578;DHT22;2811;51.900;10.734;2023-04-24T08:54:34;16.50;95.50
5578;DHT22;2811;51.900;10.734;2023-04-24T08:57:01;16.90;96.30
5578;DHT22;2811;51.900;10.734;2023-04-24T08:59:29;17.00;94.90
5578;DHT22;2811;51.900;10.734;2023-04-24T09:01:56;16.70;94.50
5578;DHT22;2811;51.900;10.734;2023-04-24T09:04:24;16.50;94.60
5578;DHT22;2811;51.900;10.734;2023-04-24T09:06:56;16.30;93.90
5578;DHT22;2811;51.900;10.734;2023-04-24T09:09:23;15.80;93.80
5578;DHT22;2811;51.900;10.734;2023-04-24T09:11:51;15.60;95.00
5578;DHT22;2811;51.900;10.734;2023-04-24T09:14:20;15.60;95.10
5578;DHT22;2811;51.900;10.734;2023-04-24T09:16:48;15.50;95.00
5578;DHT22;2811;51.900;10.734;2023-04-24T09:19:15;15.40;95.70
5578;DHT22;2811;51.900;10.734;2023-04-24T09:21:45;15.40;95.60
5578;DHT22;2811;51.900;10.734;2023-04-24T09:24:16;15.30;96.00
5578;DHT22;2811;51.900;10.734;2023-04-24T09:26:44;15.20;96.10
5578;DHT22;2811;51.900;10.734;2023-04-24T09:29:14;15.20;96.30
5578;DHT22;2811;51.900;10.734;2023-04-24T09:31:41;15.80;97.00
5578;DHT22;2811;51.900;10.734;2023-04-24T09:34:08;16.40;96.10
5578;DHT22;2811;51.900;10.734;2023-04-24T09:36:36;16.60;94.70
5578;DHT22;2811;51.900;10.734;2023-04-24T09:39:04;16.40;94.80
5578;DHT22;2811;51.900;10.734;2023-04-24T09:41:35;16.20;95.40
5578;DHT22;2811;51.900;10.734;2023-04-24T09:44:12;16.30;95.10
5578;DHT22;2811;51.900;10.734;2023-04-24T09:46:39;16.70;95.00
5578;DHT22;2811;51.900;10.734;2023-04-24T09:49:09;16.30;94.50
5578;DHT22;2811;51.900;10.734;2023-04-24T09:51:37;16.30;95.00
5578;DHT22;2811;51.900;10.734;2023-04-24T09:54:13;16.00;94.90
5578;DHT22;2811;51.900;10.734;2023-04-24T09:56:44;16.10;95.70
5578;DHT22;2811;51.900;10.734;2023-04-24T09:59:12;16.00;95.80
5578;DHT22;2811;51.900;10.734;2023-04-24T10:01:39;15.90;95.90
5578;DHT22;2811;51.900;10.734;2023-04-24T10:04:15;15.90;95.60
5578;DHT22;2811;51.900;10.734;2023-04-24T10:06:44;16.00;96.50
5578;DHT22;2811;51.900;10.734;2023-04-24T10:09:12;16.40;96.50
5578;DHT22;2811;51.900;10.734;2023-04-24T10:11:43;16.00;95.20
5578;DHT22;2811;51.900;10.734;2023-04-24T10:14:12;15.80;96.30
5578;DHT22;2811;51.900;10.734;2023-04-24T10:16:39;16.20;96.30
5578;DHT22;2811;51.900;10.734;2023-04-24T10:19:07;16.20;95.80
5578;DHT22;2811;51.900;10.734;2023-04-24T10:21:34;16.20;95.40
5578;DHT22;2811;51.900;10.734;2023-04-24T10:24:01;16.30;95.40
5578;DHT22;2811;51.900;10.734;2023-04-24T10:26:30;16.50;94.20
5578;DHT22;2811;51.900;10.734;2023-04-24T10:28:58;16.50;94.60
5578;DHT22;2811;51.900;10.734;2023-04-24T10:31:26;16.30;94.50
5578;DHT22;2811;51.900;10.734;2023-04-24T10:33:53;16.20;95.10
5578;DHT22;2811;51.900;10.734;2023-04-24T10:36:22;15.90;94.90
5578;DHT22;2811;51.900;10.734;2023-04-24T10:38:53;16.10;95.10
5578;DHT22;2811;51.900;10.734;2023-04-24T10:41:21;15.90;95.20
5578;DHT22;2811;51.900;10.734;2023-04-24T10:43:48;15.90;94.90
5578;DHT22;2811;51.900;10.734;2023-04-24T10:46:31;15.90;95.00
5578;DHT22;2811;51.900;10.734;2023-04-24T10:48:58;16.00;94.10
5578;DHT22;2811;51.900;10.734;2023-04-24T10:51:46;16.00;94.50
5578;DHT22;2811;51.900;10.734;2023-04-24T10:54:23;15.90;94.90
5578;DHT22;2811;51.900;10.734;2023-04-24T10:56:51;16.00;94.20
5578;DHT22;2811;51.900;10.734;2023-04-24T10:59:24;16.30;94.80
5578;DHT22;2811;51.900;10.734;2023-04-24T11:01:54;16.60;94.30
5578;DHT22;2811;51.900;10.734;2023-04-24T11:04:29;16.40;93.70
5578;DHT22;2811;51.900;10.734;2023-04-24T11:06:57;16.40;94.00
5578;DHT22;2811;51.900;10.734;2023-04-24T11:09:27;16.40;94.20
5578;DHT22;2811;51.900;10.734;2023-04-24T11:12:03;16.20;95.30
5578;DHT22;2811;51.900;10.734;2023-04-24T11:14:59;16.50;94.80
5578;DHT22;2811;51.900;10.734;2023-04-24T11:17:31;16.40;93.90
5578;DHT22;2811;51.900;10.734;2023-04-24T11:20:02;16.20;93.20
5578;DHT22;2811;51.900;10.734;2023-04-24T11:22:33;15.90;93.30
5578;DHT22;2811;51.900;10.734;2023-04-24T11:25:01;16.10;94.60
5578;DHT22;2811;51.900;10.734;2023-04-24T11:27:30;16.10;95.40
5578;DHT22;2811;51.900;10.734;2023-04-24T11:30:02;16.10;95.10
5578;DHT22;2811;51.900;10.734;2023-04-24T11:32:35;16.20;94.90
5578;DHT22;2811;51.900;10.734;2023-04-24T11:35:03;15.40;94.70
5578;DHT22;2811;51.900;10.734;2023-04-24T11:37:34;15.30;95.80
5578;DHT22;2811;51.900;10.734;2023-04-24T11:40:01;15.10;96.70
5578;DHT22;2811;51.900;10.734;2023-04-24T11:42:29;15.10;97.50
5578;DHT22;2811;51.900;10.734;2023-04-24T11:44:59;15.30;96.20
5578;DHT22;2811;51.900;10.734;2023-04-24T11:47:31;15.50;96.30
5578;DHT22;2811;51.900;10.734;2023-04-24T11:49:59;15.70;96.40
5578;DHT22;2811;51.900;10.734;2023-04-24T11:52:27;16.00;96.30
5578;DHT22;2811;51.900;10.734;2023-04-24T11:54:53;16.30;95.60
5578;DHT22;2811;51.900;10.734;2023-04-24T11:57:21;16.40;95.90
5578;DHT22;2811;51.900;10.734;2023-04-24T11:59:48;16.50;94.80
5578;DHT22;2811;51.900;10.734;2023-04-24T12:02:21;16.30;95.80
5578;DHT22;2811;51.900;10.734;2023-04-24T12:04:50;15.90;95.40
5578;DHT22;2811;51.900;10.734;2023-04-24T12:07:17;16.30;96.00
5578;DHT22;2811;51.900;10.734;2023-04-24T12:09:44;16.00;95.50
5578;DHT22;2811;51.900;10.734;2023-04-24T12:12:12;16.50;95.80
5578;DHT22;2811;51.900;10.734;2023-04-24T12:14:43;17.00;95.60
5578;DHT22;2811;51.900;10.734;2023-04-24T12:17:10;16.80;94.60
5578;DHT22;2811;51.900;10.734;2023-04-24T12:19:37;16.50;94.90
5578;DHT22;2811;51.900;10.734;2023-04-24T12:22:06;16.40;95.40
5578;DHT22;2811;51.900;10.734;2023-04-24T12:24:33;16.10;96.10
5578;DHT22;2811;51.900;10.734;2023-04-24T12:27:00;16.10;96.80
5578;DHT22;2811;51.900;10.734;2023-04-24T12:29:27;16.40;96.60
5578;DHT22;2811;51.900;10.734;2023-04-24T12:31:54;16.50;96.50
5578;DHT22;2811;51.900;10.734;2023-04-24T12:34:22;16.50;95.90
5578;DHT22;2811;51.900;10.734;2023-04-24T12:36:50;16.00;96.00
5578;DHT22;2811;51.900;10.734;2023-04-24T12:39:19;15.90;96.90
5578;DHT22;2811;51.900;10.734;2023-04-24T12:41:50;15.40;97.60
5578;DHT22;2811;51.900;10.734;2023-04-24T12:44:28;15.20;98.30
5578;DHT22;2811;51.900;10.734;2023-04-24T12:46:55;14.80;98.60
5578;DHT22;2811;51.900;10.734;2023-04-24T12:49:22;14.70;99.90
5578;DHT22;2811;51.900;10.734;2023-04-24T12:51:48;14.40;99.90
5578;DHT22;2811;51.900;10.734;2023-04-24T12:54:15;14.20;99.90
5578;DHT22;2811;51.900;10.734;2023-04-24T12:56:43;14.40;99.90
5578;DHT22;2811;51.900;10.734;2023-04-24T12:59:10;14.20;99.90
5578;DHT22;2811;51.900;10.734;2023-04-24T13:01:37;13.90;99.90
5578;DHT22;2811;51.900;10.734;2023-04-24T13:04:04;13.80;99.90
5578;DHT22;2811;51.900;10.734;2023-04-24T13:06:31;13.80;99.90
5578;DHT22;2811;51.900;10.734;2023-04-24T13:08:58;13.60;99.90
5578;DHT22;2811;51.900;10.734;2023-04-24T13:11:25;13.50;99.90
5578;DHT22;2811;51.900;10.734;2023-04-24T13:13:54;13.80;99.90
5578;DHT22;2811;51.900;10.734;2023-04-24T13:16:20;14.10;99.90
5578;DHT22;2811;51.900;10.734;2023-04-24T13:18:48;13.90;99.90
5578;DHT22;2811;51.900;10.734;2023-04-24T13:21:15;13.80;99.90
5578;DHT22;2811;51.900;10.734;2023-04-24T13:23:41;14.30;99.90
5578;DHT22;2811;51.900;10.734;2023-04-24T13:26:08;14.50;99.90
5578;DHT22;2811;51.900;10.734;2023-04-24T13:28:35;15.00;99.90
5578;DHT22;2811;51.900;10.734;2023-04-24T13:31:03;14.70;99.90
5578;DHT22;2811;51.900;10.734;2023-04-24T13:33:29;14.20;99.90
5578;DHT22;2811;51.900;10.734;2023-04-24T13:35:56;14.10;99.90
5578;DHT22;2811;51.900;10.734;2023-04-24T13:38:23;13.90;99.90
5578;DHT22;2811;51.900;10.734;2023-04-24T13:40:49;13.70;99.90
5578;DHT22;2811;51.900;10.734;2023-04-24T13:43:16;13.60;99.90
5578;DHT22;2811;51.900;10.734;2023-04-24T13:45:43;14.00;99.90
5578;DHT22;2811;51.900;10.734;2023-04-24T13:48:11;14.20;99.90
5578;DHT22;2811;51.900;10.734;2023-04-24T13:50:40;14.20;99.90
5578;DHT22;2811;51.900;10.734;2023-04-24T13:53:07;14.40;99.90
5578;DHT22;2811;51.900;10.734;2023-04-24T13:55:34;14.30;99.90
5578;DHT22;2811;51.900;10.734;2023-04-24T13:58:00;14.40;99.90
5578;DHT22;2811;51.900;10.734;2023-04-24T14:00:27;14.60;99.90
5578;DHT22;2811;51.900;10.734;2023-04-24T14:02:54;14.50;99.90
5578;DHT22;2811;51.900;10.734;2023-04-24T14:05:22;14.70;99.90
5578;DHT22;2811;51.900;10.734;2023-04-24T14:07:48;14.70;99.90
5578;DHT22;2811;51.900;10.734;2023-04-24T14:10:16;14.40;99.90
5578;DHT22;2811;51.900;10.734;2023-04-24T14:12:43;14.70;99.90
5578;DHT22;2811;51.900;10.734;2023-04-24T14:15:10;15.00;99.90
5578;DHT22;2811;51.900;10.734;2023-04-24T14:17:38;14.90;99.90
5578;DHT22;2811;51.900;10.734;2023-04-24T14:20:06;14.70;99.90
5578;DHT22;2811;51.900;10.734;2023-04-24T14:22:35;14.30;99.90
5578;DHT22;2811;51.900;10.734;2023-04-24T14:25:02;13.90;99.90
5578;DHT22;2811;51.900;10.734;2023-04-24T14:27:29;13.60;99.90
5578;DHT22;2811;51.900;10.734;2023-04-24T14:29:56;13.80;99.90
5578;DHT22;2811;51.900;10.734;2023-04-24T14:32:23;13.50;99.90
5578;DHT22;2811;51.900;10.734;2023-04-24T14:34:49;13.40;99.90
5578;DHT22;2811;51.900;10.734;2023-04-24T14:37:16;13.00;99.90
5578;DHT22;2811;51.900;10.734;2023-04-24T14:39:44;13.00;99.90
5578;DHT22;2811;51.900;10.734;2023-04-24T14:42:11;12.90;99.90
5578;DHT22;2811;51.900;10.734;2023-04-24T14:44:38;12.90;99.90
5578;DHT22;2811;51.900;10.734;2023-04-24T14:47:05;12.80;99.90
5578;DHT22;2811;51.900;10.734;2023-04-24T14:49:32;13.00;99.90
5578;DHT22;2811;51.900;10.734;2023-04-24T14:51:58;13.70;99.90
5578;DHT22;2811;51.900;10.734;2023-04-24T14:54:25;13.90;99.90
5578;DHT22;2811;51.900;10.734;2023-04-24T14:56:54;14.30;99.90
5578;DHT22;2811;51.900;10.734;2023-04-24T14:59:22;14.50;99.90
5578;DHT22;2811;51.900;10.734;2023-04-24T15:01:48;14.00;99.90
5578;DHT22;2811;51.900;10.734;2023-04-24T15:04:17;13.90;99.90
5578;DHT22;2811;51.900;10.734;2023-04-24T15:06:43;14.00;99.90
5578;DHT22;2811;51.900;10.734;2023-04-24T15:09:10;14.10;99.90
5578;DHT22;2811;51.900;10.734;2023-04-24T15:11:37;14.10;99.90
5578;DHT22;2811;51.900;10.734;2023-04-24T15:14:05;14.00;99.90
5578;DHT22;2811;51.900;10.734;2023-04-24T15:16:31;14.10;99.90
5578;DHT22;2811;51.900;10.734;2023-04-24T15:18:58;13.80;99.90
5578;DHT22;2811;51.900;10.734;2023-04-24T15:21:25;13.50;99.90
5578;DHT22;2811;51.900;10.734;2023-04-24T15:23:51;13.40;99.90
5578;DHT22;2811;51.900;10.734;2023-04-24T15:26:18;13.40;99.90
5578;DHT22;2811;51.900;10.734;2023-04-24T15:28:45;13.40;99.90
5578;DHT22;2811;51.900;10.734;2023-04-24T15:31:13;13.50;99.90
5578;DHT22;2811;51.900;10.734;2023-04-24T15:33:40;13.20;99.90
5578;DHT22;2811;51.900;10.734;2023-04-24T15:36:07;13.10;99.90
5578;DHT22;2811;51.900;10.734;2023-04-24T15:38:34;13.00;99.90
5578;DHT22;2811;51.900;10.734;2023-04-24T15:41:00;13.00;99.90
5578;DHT22;2811;51.900;10.734;2023-04-24T15:43:27;12.90;99.90
5578;DHT22;2811;51.900;10.734;2023-04-24T15:45:56;13.00;99.90
5578;DHT22;2811;51.900;10.734;2023-04-24T15:48:24;12.80;99.90